Time;durP1;ratioP1;P1;durP2;ratioP2;P2;SDS_P1;SDS_P2;PMS_P1;PMS_P2;Temp;Humidity;BMP_temperature;BMP_pressure;BME280_temperature;BME280_humidity;BME280_pressure;Samples;Min_cycle;Max_cycle;Signal;HPM_P1;HPM_P2
2023/10/01 00:01:41;;;;;;;5.65;2.95;;;;;;;23.23;50.12;100875.53;5113930;28;20051;-65
2023/10/01 00:04:11;;;;;;;5.53;3.05;;;;;;;23.22;50.15;100862.94;5113846;28;20054;-65
2023/10/01 00:06:39;;;;;;;4.50;3.10;;;;;;;23.23;50.04;100863.81;5113550;28;20044;-66
2023/10/01 00:09:09;;;;;;;5.32;3.22;;;;;;;23.20;50.12;100867.69;5113870;28;20048;-65
2023/10/01 00:11:38;;;;;;;4.82;2.70;;;;;;;23.21;50.13;100869.41;5113650;28;20054;-65
2023/10/01 00:14:08;;;;;;;4.60;2.90;;;;;;;23.19;50.11;100868.72;5113532;28;20131;-65
2023/10/01 00:16:53;;;;;;;5.05;2.70;;;;;;;23.18;50.17;100867.00;5113443;28;20043;-65
2023/10/01 00:19:21;;;;;;;4.95;3.17;;;;;;;23.18;50.17;100869.72;5113667;28;20051;-66
2023/10/01 00:21:50;;;;;;;4.20;2.75;;;;;;;23.18;49.94;100875.19;5113443;28;20056;-66
2023/10/01 00:24:20;;;;;;;4.78;2.85;;;;;;;23.16;49.94;100869.00;5113569;28;20044;-65
2023/10/01 00:26:48;;;;;;;3.75;2.60;;;;;;;23.15;50.10;100870.03;5113385;28;20051;-66
2023/10/01 00:29:19;;;;;;;4.70;2.95;;;;;;;23.14;49.97;100873.75;5113237;28;20485;-66
2023/10/01 00:31:49;;;;;;;5.47;2.70;;;;;;;23.15;49.92;100875.47;5113513;28;20048;-66
2023/10/01 00:34:21;;;;;;;4.57;2.70;;;;;;;23.12;50.03;100868.50;5113418;28;20101;-66
2023/10/01 00:36:49;;;;;;;4.10;2.72;;;;;;;23.12;49.99;100863.03;5113116;28;20043;-66
2023/10/01 00:39:17;;;;;;;4.45;2.72;;;;;;;23.12;49.92;100864.91;5113099;28;20445;-66
2023/10/01 00:41:48;;;;;;;4.72;2.92;;;;;;;23.11;49.73;100866.78;5113119;28;20073;-65
2023/10/01 00:44:17;;;;;;;4.18;2.63;;;;;;;23.10;49.98;100861.50;5113173;28;20052;-65
2023/10/01 00:46:45;;;;;;;3.97;2.70;;;;;;;23.09;49.82;100854.34;5113201;28;20082;-65
2023/10/01 00:49:14;;;;;;;4.13;2.60;;;;;;;23.08;49.93;100861.66;5112932;28;20455;-65
2023/10/01 00:51:43;;;;;;;4.68;2.78;;;;;;;23.08;49.83;100868.97;5112779;28;20503;-65
2023/10/01 00:54:12;;;;;;;5.15;2.78;;;;;;;23.07;49.59;100867.28;5112673;28;20051;-65
2023/10/01 00:56:42;;;;;;;4.15;2.70;;;;;;;23.05;49.78;100864.69;5112719;28;20127;-65
2023/10/01 00:59:12;;;;;;;4.30;2.65;;;;;;;23.04;49.74;100857.53;5112852;28;20047;-65
2023/10/01 01:01:41;;;;;;;5.47;2.83;;;;;;;23.03;49.84;100863.16;5112753;28;20047;-65
2023/10/01 01:04:19;;;;;;;4.10;2.40;;;;;;;23.02;49.69;100869.59;5112614;28;20070;-65
2023/10/01 01:06:48;;;;;;;5.22;2.97;;;;;;;23.01;49.49;100863.31;5111780;28;20056;-65
2023/10/01 01:09:20;;;;;;;4.15;2.38;;;;;;;23.01;49.53;100873.34;5112295;28;20403;-65
2023/10/01 01:11:50;;;;;;;4.68;2.70;;;;;;;23.01;49.71;100873.34;5112352;28;20062;-65
2023/10/01 01:14:21;;;;;;;5.05;2.63;;;;;;;22.99;49.66;100873.50;5112628;28;20143;-65
2023/10/01 01:16:49;;;;;;;4.20;2.65;;;;;;;22.98;49.44;100882.66;5112378;28;20138;-65
2023/10/01 01:19:19;;;;;;;4.25;2.58;;;;;;;22.97;49.36;100882.81;5112345;28;20049;-65
2023/10/01 01:21:48;;;;;;;4.35;2.78;;;;;;;22.97;49.51;100882.81;5112213;28;20051;-65
2023/10/01 01:24:17;;;;;;;4.18;2.28;;;;;;;22.96;49.73;100878.38;5112459;28;20051;-65
2023/10/01 01:26:51;;;;;;;4.05;2.40;;;;;;;22.94;49.59;100872.25;5112300;28;20074;-66
2023/10/01 01:29:29;;;;;;;3.80;2.25;;;;;;;22.93;49.56;100882.28;5112202;28;20100;-66
2023/10/01 01:32:07;;;;;;;4.22;2.53;;;;;;;22.92;49.49;100879.72;5112143;28;20047;-65
2023/10/01 01:34:36;;;;;;;3.58;2.38;;;;;;;22.91;49.54;100878.00;5112303;28;20400;-65
2023/10/01 01:37:06;;;;;;;3.90;2.47;;;;;;;22.90;49.69;100879.03;5112046;28;20130;-65
2023/10/01 01:39:48;;;;;;;4.15;2.30;;;;;;;22.89;49.44;100880.03;5112282;28;20502;-65
2023/10/01 01:42:21;;;;;;;3.70;2.27;;;;;;;22.87;49.06;100882.88;5112219;28;20083;-65
2023/10/01 01:45:14;;;;;;;4.13;2.43;;;;;;;22.87;49.24;100879.31;5111980;28;20284;-65
2023/10/01 01:47:39;;;;;;;3.47;2.20;;;;;;;22.85;49.18;100880.34;5111971;28;20315;-65
2023/10/01 01:50:17;;;;;;;4.13;2.35;;;;;;;22.84;49.26;100875.06;5111958;28;20056;-65
2023/10/01 01:52:49;;;;;;;4.47;2.47;;;;;;;22.83;49.12;100885.03;5112099;28;20048;-65
2023/10/01 01:55:29;;;;;;;3.72;2.50;;;;;;;22.83;49.30;100886.91;5111808;28;20052;-65
2023/10/01 01:58:08;;;;;;;3.70;2.15;;;;;;;22.80;48.92;100888.09;5112218;28;20048;-65
2023/10/01 02:00:39;;;;;;;3.65;2.25;;;;;;;22.81;49.05;100888.94;5111980;28;20051;-65
2023/10/01 02:03:14;;;;;;;4.15;2.60;;;;;;;22.80;49.12;100893.53;5111967;28;20048;-66
2023/10/01 02:05:47;;;;;;;3.42;2.20;;;;;;;22.79;49.22;100889.09;5111816;28;20065;-66
2023/10/01 02:08:24;;;;;;;3.63;2.20;;;;;;;22.77;48.85;100891.09;5112089;28;20142;-65
2023/10/01 02:10:56;;;;;;;4.32;2.40;;;;;;;22.77;48.93;100899.25;5111649;28;20048;-65
2023/10/01 02:13:26;;;;;;;4.65;2.58;;;;;;;22.76;49.16;100897.56;5111740;28;20499;-65
2023/10/01 02:15:55;;;;;;;4.38;2.35;;;;;;;22.76;49.16;100903.00;5111566;28;20058;-65
2023/10/01 02:18:26;;;;;;;3.90;2.30;;;;;;;22.74;49.02;100901.44;5112343;28;20052;-65
2023/10/01 02:20:56;;;;;;;3.28;1.92;;;;;;;22.72;48.95;100901.59;5115901;28;20057;-65
2023/10/01 02:23:32;;;;;;;4.50;2.40;;;;;;;22.72;48.84;100898.88;5115703;28;20069;-65
2023/10/01 02:26:06;;;;;;;4.32;2.28;;;;;;;22.71;48.77;100905.34;5115761;28;20063;-66
2023/10/01 02:28:36;;;;;;;3.42;2.15;;;;;;;22.68;48.78;100899.34;5115465;28;20545;-65
2023/10/01 02:31:08;;;;;;;4.00;2.25;;;;;;;22.68;48.74;100908.38;5115745;28;20932;-65
2023/10/01 02:33:55;;;;;;;4.43;2.42;;;;;;;22.66;48.78;100902.22;5115716;28;20065;-65
2023/10/01 02:36:23;;;;;;;4.38;2.20;;;;;;;22.65;48.52;100900.50;5115524;28;20752;-65
2023/10/01 02:38:53;;;;;;;4.43;2.38;;;;;;;22.64;48.70;100906.09;5115411;28;20047;-65
2023/10/01 02:41:26;;;;;;;3.50;2.30;;;;;;;22.62;48.63;100900.81;5115299;28;20052;-66
2023/10/01 02:43:53;;;;;;;3.70;1.90;;;;;;;22.62;48.81;100900.81;5115553;28;20146;-65
2023/10/01 02:46:26;;;;;;;3.97;2.20;;;;;;;22.61;48.82;100899.13;5115199;28;20050;-65
2023/10/01 02:48:59;;;;;;;3.90;2.15;;;;;;;22.60;49.01;100897.41;5115095;28;20121;-65
2023/10/01 02:51:37;;;;;;;3.97;2.10;;;;;;;22.59;48.90;100895.72;5115048;28;20393;-66
2023/10/01 02:54:05;;;;;;;3.92;2.25;;;;;;;22.57;49.05;100904.00;5115381;28;20043;-65
2023/10/01 02:56:37;;;;;;;3.20;2.00;;;;;;;22.57;49.22;100897.69;5114986;28;20051;-65
2023/10/01 02:59:09;;;;;;;3.63;2.13;;;;;;;22.54;48.71;100903.47;5115378;28;20043;-65
2023/10/01 03:01:39;;;;;;;4.15;2.30;;;;;;;22.54;48.90;100906.16;5115035;28;20044;-65
2023/10/01 03:04:10;;;;;;;3.97;2.17;;;;;;;22.53;48.75;100913.47;5114887;28;20138;-65
2023/10/01 03:06:47;;;;;;;3.83;2.08;;;;;;;22.52;48.43;100908.19;5115065;28;20040;-65
2023/10/01 03:09:29;;;;;;;3.85;2.35;;;;;;;22.51;48.28;100910.06;5114673;28;20051;-65
2023/10/01 03:12:24;;;;;;;3.75;2.03;;;;;;;22.49;48.36;100914.81;5114687;28;20056;-65
2023/10/01 03:15:00;;;;;;;3.97;2.25;;;;;;;22.47;48.80;100913.22;5114600;28;20043;-65
2023/10/01 03:17:38;;;;;;;3.17;2.05;;;;;;;22.47;48.51;100918.66;5114819;28;20147;-65
2023/10/01 03:21:02;;;;;;;3.22;1.98;;;;;;;22.45;48.30;100916.09;5114721;28;20044;-65
2023/10/01 03:23:01;;;;;;;3.80;2.10;;;;;;;22.44;48.33;100914.41;5114389;28;20146;-65
2023/10/01 03:25:40;;;;;;;4.38;2.30;;;;;;;22.43;48.16;100915.41;5114733;28;20043;-65
2023/10/01 03:28:25;;;;;;;3.40;2.05;;;;;;;22.41;48.38;100913.84;5114570;28;20047;-66
2023/10/01 03:31:01;;;;;;;4.40;2.17;;;;;;;22.39;48.51;100904.97;5113287;28;20043;-65
2023/10/01 03:33:30;;;;;;;3.50;2.08;;;;;;;22.39;48.57;100907.69;5114347;28;20040;-65
2023/10/01 03:35:58;;;;;;;3.80;1.98;;;;;;;22.37;48.39;100910.56;5114534;28;20162;-65
2023/10/01 03:38:27;;;;;;;3.53;1.98;;;;;;;22.36;48.35;100910.72;5114241;28;20126;-65
2023/10/01 03:41:00;;;;;;;3.85;1.88;;;;;;;22.35;48.76;100914.44;5114366;28;20063;-65
2023/10/01 03:43:35;;;;;;;3.30;1.90;;;;;;;22.35;48.31;100914.44;5114288;28;20130;-65
2023/10/01 03:46:07;;;;;;;3.92;2.20;;;;;;;22.32;48.38;100910.19;5114041;28;20051;-65
2023/10/01 03:51:28;;;;;;;4.05;2.00;;;;;;;22.30;48.28;100906.78;5114088;28;20276;-65
2023/10/01 03:53:59;;;;;;;3.63;1.80;;;;;;;22.29;47.83;100910.47;5114115;28;20090;-66
2023/10/01 03:56:30;;;;;;;4.10;2.03;;;;;;;22.27;48.21;100921.50;5113758;28;20048;-65
2023/10/01 03:59:02;;;;;;;3.65;2.15;;;;;;;22.27;48.12;100926.94;5114069;28;20100;-65
2023/10/01 04:01:34;;;;;;;3.63;2.20;;;;;;;22.26;48.31;100922.50;5113909;28;20146;-65
2023/10/01 04:04:03;;;;;;;4.30;2.00;;;;;;;22.24;48.13;100924.53;5108876;28;20072;-65
2023/10/01 04:06:32;;;;;;;3.92;2.10;;;;;;;22.23;47.98;100930.97;5106948;28;20501;-65
2023/10/01 04:09:06;;;;;;;3.92;2.15;;;;;;;22.22;47.96;100929.25;5111307;28;20495;-65
2023/10/01 04:11:49;;;;;;;3.35;1.88;;;;;;;22.22;47.94;100925.69;5113746;28;20056;-65
2023/10/01 04:14:23;;;;;;;6.18;2.55;;;;;;;22.20;47.72;100925.84;5113676;28;20049;-65
2023/10/01 04:16:56;;;;;;;4.65;1.90;;;;;;;22.20;47.56;100925.84;5113586;28;20372;-65
2023/10/01 04:19:24;;;;;;;4.03;2.00;;;;;;;22.19;47.77;100921.38;5113345;28;20051;-65
2023/10/01 04:21:55;;;;;;;4.65;2.17;;;;;;;22.18;47.77;100935.97;5113557;28;20045;-65
2023/10/01 04:24:27;;;;;;;4.10;2.00;;;;;;;22.16;47.81;100932.56;5113523;28;20059;-65
2023/10/01 04:27:10;;;;;;;4.93;2.42;;;;;;;22.17;47.57;100930.72;5113421;28;20047;-66
2023/10/01 04:29:46;;;;;;;4.25;2.00;;;;;;;22.16;47.91;100934.44;5113262;28;20054;-64
2023/10/01 04:32:16;;;;;;;3.30;1.88;;;;;;;22.14;47.89;100926.44;5113057;28;20048;-64
2023/10/01 04:34:45;;;;;;;4.60;2.15;;;;;;;22.13;47.81;100932.88;5113114;28;20093;-64
2023/10/01 04:37:13;;;;;;;4.47;2.03;;;;;;;22.12;47.46;100936.59;5113077;28;20048;-65
2023/10/01 04:39:42;;;;;;;3.30;1.95;;;;;;;22.12;47.65;100938.47;5113193;28;20051;-65
2023/10/01 04:42:11;;;;;;;3.60;1.90;;;;;;;22.11;47.59;100945.78;5112816;28;20089;-64
2023/10/01 04:44:41;;;;;;;3.47;1.77;;;;;;;22.11;47.63;100951.19;5112924;28;20135;-64
2023/10/01 04:49:51;;;;;;;4.72;2.08;;;;;;;22.09;47.46;100958.63;5112967;28;20043;-64
2023/10/01 04:52:24;;;;;;;4.07;1.88;;;;;;;22.07;47.77;100965.22;5112907;28;20131;-64
2023/10/01 04:54:52;;;;;;;3.90;2.07;;;;;;;22.07;47.68;100966.06;5112698;28;20138;-64
2023/10/01 04:57:20;;;;;;;4.45;2.20;;;;;;;22.06;47.60;100961.63;5112891;28;20303;-64
2023/10/01 04:59:57;;;;;;;4.03;2.00;;;;;;;22.05;47.37;100972.63;5112636;28;20075;-64
2023/10/01 05:02:29;;;;;;;3.08;1.80;;;;;;;22.04;47.56;100963.63;5112832;28;20047;-64
2023/10/01 05:05:09;;;;;;;3.25;1.90;;;;;;;22.04;47.79;100970.94;5112650;28;20059;-66
2023/10/01 05:07:39;;;;;;;4.60;2.00;;;;;;;22.03;47.87;100980.94;5112553;28;20062;-65
2023/10/01 05:10:08;;;;;;;4.00;2.10;;;;;;;22.02;47.65;100979.22;5112767;28;20052;-63
2023/10/01 05:12:43;;;;;;;4.10;2.13;;;;;;;22.00;47.74;100976.66;5112301;28;20083;-66
2023/10/01 05:15:21;;;;;;;3.47;1.80;;;;;;;22.00;47.80;100971.22;5112543;28;20067;-66
2023/10/01 05:17:50;;;;;;;4.32;2.10;;;;;;;21.99;47.41;100977.63;5112280;28;20143;-65
2023/10/01 05:20:19;;;;;;;3.67;2.00;;;;;;;21.97;47.62;100971.50;5112290;28;20104;-65
2023/10/01 05:22:50;;;;;;;3.22;2.00;;;;;;;21.98;47.51;100972.38;5112478;28;20048;-64
2023/10/01 05:25:19;;;;;;;4.30;1.98;;;;;;;21.96;47.58;100975.22;5112395;28;20043;-65
2023/10/01 05:27:52;;;;;;;3.92;2.20;;;;;;;21.95;47.44;100972.66;5112342;28;20047;-65
2023/10/01 05:30:39;;;;;;;3.35;2.05;;;;;;;21.95;47.43;100973.53;5112228;28;20064;-65
2023/10/01 05:33:11;;;;;;;3.85;2.00;;;;;;;21.93;47.32;100969.25;5112415;28;20074;-65
2023/10/01 05:35:43;;;;;;;3.08;1.70;;;;;;;21.93;47.39;100977.41;5112207;28;20532;-64
2023/10/01 05:38:14;;;;;;;4.63;1.85;;;;;;;21.92;47.51;100978.41;5112330;28;20052;-65
2023/10/01 05:40:44;;;;;;;3.72;1.80;;;;;;;21.91;47.27;100982.97;5112090;28;20134;-64
2023/10/01 05:43:13;;;;;;;5.15;1.90;;;;;;;21.91;47.33;100984.84;5112002;28;20051;-64
2023/10/01 05:45:50;;;;;;;3.70;1.90;;;;;;;21.90;47.14;100993.97;5112431;28;20050;-65
2023/10/01 05:48:19;;;;;;;4.13;1.95;;;;;;;21.90;47.12;100991.25;5112197;28;20047;-65
2023/10/01 05:50:49;;;;;;;3.47;1.80;;;;;;;21.89;47.32;100986.81;5112043;28;20051;-65
2023/10/01 05:53:18;;;;;;;4.03;1.80;;;;;;;21.88;47.01;100999.56;5112525;28;20051;-65
2023/10/01 05:55:47;;;;;;;4.15;1.88;;;;;;;21.88;46.99;100998.69;5116565;28;20051;-65
2023/10/01 05:58:21;;;;;;;4.10;1.90;;;;;;;21.88;47.30;100998.69;5116295;28;20062;-64
2023/10/01 06:01:05;;;;;;;3.92;2.10;;;;;;;21.87;47.23;101005.13;5116154;28;20048;-65
2023/10/01 06:03:40;;;;;;;3.75;1.85;;;;;;;21.86;47.04;101011.56;5116149;28;20039;-65
2023/10/01 06:06:13;;;;;;;5.32;2.05;;;;;;;21.86;47.06;101022.44;5116033;28;20047;-65
2023/10/01 06:08:46;;;;;;;4.10;1.80;;;;;;;21.86;47.29;101008.84;5116236;28;20048;-65
2023/10/01 06:11:16;;;;;;;4.00;2.17;;;;;;;21.85;47.10;101013.44;5115829;28;20530;-65
2023/10/01 06:13:51;;;;;;;3.50;2.10;;;;;;;21.84;47.27;101008.16;5113209;28;20067;-65
2023/10/01 06:16:23;;;;;;;3.90;2.00;;;;;;;21.84;46.94;101013.59;5114682;28;20054;-64
2023/10/01 06:18:56;;;;;;;4.18;2.13;;;;;;;21.81;46.95;101003.88;5114480;28;20104;-64
2023/10/01 06:21:28;;;;;;;4.43;2.00;;;;;;;21.81;46.98;101011.13;5115451;28;20508;-65
2023/10/01 06:24:01;;;;;;;3.70;1.80;;;;;;;21.79;46.96;101007.72;5115389;28;20040;-64
2023/10/01 06:26:33;;;;;;;;;;;;;;;21.79;46.88;101015.88;5115994;28;20055;-64
2023/10/01 06:29:02;;;;;;;3.35;1.85;;;;;;;21.78;46.86;101017.72;5115467;28;19919;-63
2023/10/01 06:31:48;;;;;;;3.33;1.95;;;;;;;21.78;46.81;101019.59;5115675;28;20463;-64
2023/10/01 06:34:19;;;;;;;4.93;2.20;;;;;;;21.78;46.99;101025.03;5115718;28;20043;-62
2023/10/01 06:36:51;;;;;;;4.22;2.00;;;;;;;21.77;46.94;101035.03;5115303;28;20047;-65
2023/10/01 06:39:20;;;;;;;4.20;2.25;;;;;;;21.78;47.17;101030.44;5115029;28;20073;-64
2023/10/01 06:41:49;;;;;;;3.70;2.00;;;;;;;21.77;47.04;101026.03;5114689;28;20514;-65
2023/10/01 06:44:19;;;;;;;3.83;1.83;;;;;;;21.77;46.90;101026.88;5115395;28;20043;-65
2023/10/01 06:46:52;;;;;;;3.75;1.80;;;;;;;21.76;46.73;101019.75;5115009;28;20052;-65
2023/10/01 06:49:20;;;;;;;4.30;1.88;;;;;;;21.76;46.69;101021.59;5114969;28;20062;-64
2023/10/01 06:51:50;;;;;;;4.07;2.00;;;;;;;21.75;46.64;101025.31;5115045;28;20066;-65
2023/10/01 06:54:19;;;;;;;4.50;1.80;;;;;;;21.75;46.95;101036.19;5114631;28;20048;-64
2023/10/01 06:56:48;;;;;;;5.18;1.90;;;;;;;21.76;46.92;101037.91;5114694;28;20040;-64
2023/10/01 06:59:17;;;;;;;3.03;1.83;;;;;;;21.76;46.92;101038.75;5114712;28;20075;-65
2023/10/01 07:01:50;;;;;;;3.10;1.70;;;;;;;21.74;47.19;101039.91;5115260;28;20047;-65
2023/10/01 07:04:23;;;;;;;;;;;;;;;21.76;47.13;101048.75;5115392;28;20107;-65
2023/10/01 07:06:53;;;;;;;3.88;1.98;;;;;;;21.74;47.06;101062.47;5114919;28;19994;-63
2023/10/01 07:09:27;;;;;;;3.85;1.80;;;;;;;21.74;47.07;101057.06;5114845;28;20047;-64
2023/10/01 07:12:00;;;;;;;5.20;2.00;;;;;;;21.75;46.85;101055.19;5114718;28;20527;-63
2023/10/01 07:14:38;;;;;;;4.00;2.00;;;;;;;21.75;46.94;101063.34;5114809;28;20039;-64
2023/10/01 07:17:09;;;;;;;4.00;2.05;;;;;;;21.74;46.86;101056.19;5114566;28;20047;-65
2023/10/01 07:19:40;;;;;;;3.63;1.80;;;;;;;21.74;46.89;101062.47;5114694;28;20108;-65
2023/10/01 07:22:09;;;;;;;4.20;1.77;;;;;;;21.74;46.86;101058.91;5114750;28;20101;-64
2023/10/01 07:24:46;;;;;;;3.33;1.90;;;;;;;21.73;47.13;101058.06;5115106;28;20047;-64
2023/10/01 07:27:17;;;;;;;2.88;1.50;;;;;;;21.74;47.22;101061.63;5115039;28;20101;-64
2023/10/01 07:29:47;;;;;;;4.60;1.85;;;;;;;21.74;47.05;101067.06;5114264;28;20059;-64
2023/10/01 07:32:15;;;;;;;4.97;2.22;;;;;;;21.76;47.02;101075.91;5114516;28;20043;-65
2023/10/01 07:34:48;;;;;;;3.50;1.77;;;;;;;21.75;47.20;101074.19;5114525;28;20097;-66
2023/10/01 07:37:29;;;;;;;5.32;1.90;;;;;;;21.74;47.10;101072.50;5114200;28;20073;-67
2023/10/01 07:40:08;;;;;;;3.97;2.10;;;;;;;21.74;47.37;101062.47;5114048;28;20048;-64
2023/10/01 07:42:46;;;;;;;3.25;1.70;;;;;;;21.73;47.18;101052.63;5114399;28;20044;-64
2023/10/01 07:45:24;;;;;;;3.95;1.92;;;;;;;21.76;47.15;101063.19;5114180;28;20392;-64
2023/10/01 07:47:52;;;;;;;4.00;2.00;;;;;;;21.74;46.99;101057.06;5114079;28;20065;-66
2023/10/01 07:50:24;;;;;;;4.28;2.10;;;;;;;21.76;47.14;101056.91;5106800;28;20097;-66
2023/10/01 07:53:03;;;;;;;5.22;2.05;;;;;;;21.77;46.96;101061.31;5093220;28;20559;-66
2023/10/01 07:55:35;;;;;;;3.63;1.80;;;;;;;21.75;46.88;101071.47;5107107;28;20044;-65
2023/10/01 07:58:23;;;;;;;3.42;1.60;;;;;;;21.77;46.73;101074.91;5113378;28;20529;-64
2023/10/01 08:00:59;;;;;;;3.75;1.75;;;;;;;21.76;46.91;101065.03;5113356;28;20043;-64
2023/10/01 08:03:32;;;;;;;4.53;2.00;;;;;;;21.77;47.20;101078.47;5113252;28;20043;-64
2023/10/01 08:06:15;;;;;;;3.90;1.75;;;;;;;21.77;47.11;101081.19;5113662;28;20132;-64
2023/10/01 08:08:48;;;;;;;5.70;2.37;;;;;;;21.77;47.06;101075.75;5113411;28;20117;-65
2023/10/01 08:14:05;;;;;;;3.38;1.80;;;;;;;21.79;47.30;101081.03;5112885;28;20048;-64
2023/10/01 08:16:47;;;;;;;3.97;2.13;;;;;;;21.80;47.17;101080.03;5112857;28;20119;-63
2023/10/01 08:19:20;;;;;;;3.25;1.77;;;;;;;21.80;47.23;101070.03;5112960;28;20062;-65
2023/10/01 08:22:13;;;;;;;4.03;2.03;;;;;;;21.81;47.05;101068.16;5112911;28;20044;-64
2023/10/01 08:24:45;;;;;;;4.40;1.90;;;;;;;21.80;47.05;101077.31;5113021;28;20399;-64
2023/10/01 08:27:14;;;;;;;3.45;1.85;;;;;;;21.82;47.24;101069.91;5112938;28;20134;-64
2023/10/01 08:30:18;;;;;;;4.18;2.00;;;;;;;21.82;47.26;101064.47;5113281;28;20075;-64
2023/10/01 08:32:49;;;;;;;3.70;2.05;;;;;;;21.83;47.01;101066.19;5112817;28;20112;-64
2023/10/01 08:35:25;;;;;;;3.80;1.90;;;;;;;21.84;47.36;101067.91;5113181;28;20143;-66
2023/10/01 08:37:59;;;;;;;4.00;2.00;;;;;;;21.86;47.26;101087.63;5112680;28;20488;-66
2023/10/01 08:40:29;;;;;;;5.65;2.00;;;;;;;21.86;47.14;101087.63;5112933;28;20142;-63
2023/10/01 08:46:47;;;;;;;5.07;2.00;;;;;;;21.89;47.14;101095.47;5113504;28;20051;-65
2023/10/01 08:49:41;;;;;;;4.75;2.17;;;;;;;21.89;47.12;101103.59;5112903;28;20054;-66
2023/10/01 08:56:52;;;;;;;3.85;1.90;;;;;;;21.91;46.98;101094.34;5109166;28;20056;-66
2023/10/01 08:59:59;;;;;;;4.63;2.15;;;;;;;21.93;47.30;101089.59;5111721;28;20051;-66
2023/10/01 09:03:12;;;;;;;3.97;1.90;;;;;;;21.92;47.03;101087.03;5050227;28;20130;-66
2023/10/01 09:07:03;;;;;;;3.60;1.85;;;;;;;21.97;47.21;101090.16;5112703;28;20047;-66
2023/10/01 09:10:37;;;;;;;3.78;1.70;;;;;;;21.98;47.35;101087.28;5112352;28;20040;-67
2023/10/01 09:14:35;;;;;;;4.55;1.80;;;;;;;22.00;47.17;101087.16;5112191;28;20048;-65
2023/10/01 09:17:40;;;;;;;3.50;1.80;;;;;;;22.03;47.16;101083.31;5112568;28;20047;-63
2023/10/01 09:20:39;;;;;;;3.20;1.70;;;;;;;22.03;47.27;101072.44;5111938;28;20131;-62
2023/10/01 09:26:53;;;;;;;3.83;1.92;;;;;;;22.05;47.51;101065.84;5112335;28;20043;-66
2023/10/01 09:29:26;;;;;;;3.47;1.98;;;;;;;22.07;47.54;101069.31;5111128;28;20089;-62
2023/10/01 09:31:57;;;;;;;3.78;1.98;;;;;;;22.09;47.51;101069.16;5111997;28;20047;-68
2023/10/01 09:34:33;;;;;;;3.80;1.70;;;;;;;22.11;47.27;101064.44;5112233;28;20047;-65
2023/10/01 09:37:03;;;;;;;3.65;1.70;;;;;;;22.12;47.12;101072.44;5111776;28;20132;-66
2023/10/01 09:39:38;;;;;;;5.13;2.35;;;;;;;22.14;47.34;101065.00;5111633;28;20442;-66
2023/10/01 09:42:22;;;;;;;4.50;2.00;;;;;;;22.16;47.31;101064.84;5111599;28;20425;-63
2023/10/01 09:44:54;;;;;;;3.80;1.92;;;;;;;22.18;47.45;101055.53;5111899;28;20083;-68
2023/10/01 09:47:25;;;;;;;3.60;1.70;;;;;;;22.20;47.30;101069.84;5111597;28;20047;-66
2023/10/01 09:49:57;;;;;;;4.15;2.20;;;;;;;22.21;47.31;101068.84;5111473;28;20055;-66
2023/10/01 09:52:31;;;;;;;3.80;1.70;;;;;;;22.24;47.34;101065.81;5111311;28;20476;-67
2023/10/01 09:55:07;;;;;;;4.40;1.80;;;;;;;22.27;47.36;101064.66;5111764;28;20043;-67
2023/10/01 09:57:37;;;;;;;4.32;1.90;;;;;;;22.29;47.42;101070.81;5111828;28;20047;-64
2023/10/01 10:00:18;;;;;;;4.35;2.00;;;;;;;22.33;47.41;101063.22;5111665;28;20101;-63
2023/10/01 10:02:53;;;;;;;5.18;2.40;;;;;;;22.36;47.33;101068.34;5111482;28;20055;-67
2023/10/01 10:05:28;;;;;;;5.20;2.10;;;;;;;22.39;47.15;101071.66;5111512;28;20048;-66
2023/10/01 10:08:13;;;;;;;4.53;2.08;;;;;;;22.44;47.46;101071.19;5111120;28;20044;-65
2023/10/01 10:10:48;;;;;;;5.55;2.45;;;;;;;22.48;47.54;101078.03;5111340;28;20071;-66
2023/10/01 10:13:45;;;;;;;5.38;2.60;;;;;;;22.53;47.23;101075.72;5111520;28;20043;-66
2023/10/01 10:16:32;;;;;;;7.30;2.80;;;;;;;22.57;47.33;101071.69;5111685;28;20097;-66
2023/10/01 10:19:20;;;;;;;5.60;2.50;;;;;;;22.61;47.46;101081.28;5111199;28;20052;-66
2023/10/01 10:22:16;;;;;;;7.65;3.10;;;;;;;22.66;47.53;101076.22;5111631;28;20069;-63
2023/10/01 10:24:54;;;;;;;6.53;3.15;;;;;;;22.69;47.39;101080.53;5111465;28;20062;-66
2023/10/01 10:27:47;;;;;;;8.82;3.15;;;;;;;22.78;47.53;101080.50;5111477;28;20485;-67
2023/10/01 10:30:21;;;;;;;;;;;;;;;22.81;47.63;101069.31;5111828;28;20059;-67
2023/10/01 10:33:43;;;;;;;5.10;2.50;;;;;;;22.84;47.52;101060.00;5111099;28;19926;-66
2023/10/01 10:36:58;;;;;;;7.53;2.85;;;;;;;22.87;47.41;101058.84;5111232;28;20294;-66
2023/10/01 10:40:02;;;;;;;8.00;3.17;;;;;;;22.89;47.41;101065.00;5111899;28;20493;-66
2023/10/01 10:42:33;;;;;;;7.88;3.20;;;;;;;22.90;47.52;101059.41;5114982;28;20143;-66
2023/10/01 10:45:42;;;;;;;7.70;2.83;;;;;;;22.92;47.49;101059.25;5115355;28;20046;-68
2023/10/01 10:48:14;;;;;;;7.60;2.67;;;;;;;22.94;47.63;101057.22;5115288;28;20100;-66
2023/10/01 10:50:46;;;;;;;7.32;2.83;;;;;;;22.94;47.42;101055.34;5115306;28;20507;-67
2023/10/01 10:53:20;;;;;;;7.78;3.13;;;;;;;22.97;47.50;101057.78;5115253;28;20047;-67
2023/10/01 10:56:02;;;;;;;7.03;3.08;;;;;;;22.97;47.50;101059.63;5114568;28;20067;-67
2023/10/01 10:58:38;;;;;;;6.90;2.80;;;;;;;22.99;47.33;101054.91;5115132;28;20135;-67
2023/10/01 11:01:23;;;;;;;6.57;2.75;;;;;;;23.02;47.20;101046.44;5114793;28;20116;-67
2023/10/01 11:04:12;;;;;;;7.15;3.20;;;;;;;23.03;47.15;101056.31;5115021;28;20123;-68
2023/10/01 11:07:02;;;;;;;6.97;2.97;;;;;;;23.07;47.09;101044.13;5114751;28;20478;-67
2023/10/01 11:09:44;;;;;;;6.93;2.83;;;;;;;23.09;47.27;101052.97;5115031;28;20502;-67
2023/10/01 11:12:22;;;;;;;5.13;2.85;;;;;;;23.12;47.09;101045.34;5114452;28;20098;-67
2023/10/01 11:15:19;;;;;;;7.38;2.75;;;;;;;23.19;47.06;101051.06;5114849;28;20134;-66
2023/10/01 11:17:49;;;;;;;6.07;2.95;;;;;;;23.29;46.94;101046.38;5114447;28;20163;-67
2023/10/01 11:20:23;;;;;;;8.13;3.08;;;;;;;23.35;46.92;101045.75;5114474;28;20528;-67
2023/10/01 11:22:54;;;;;;;11.93;2.80;;;;;;;23.43;46.44;101040.38;5114515;28;20426;-66
2023/10/01 11:25:27;;;;;;;8.88;3.17;;;;;;;23.50;46.54;101042.47;5114786;28;20597;-67
2023/10/01 11:28:05;;;;;;;6.25;2.67;;;;;;;23.56;46.51;101036.41;5114360;28;20085;-68
2023/10/01 11:30:57;;;;;;;6.45;2.85;;;;;;;23.64;46.36;101022.88;5114237;28;20184;-67
2023/10/01 11:33:38;;;;;;;6.72;2.72;;;;;;;23.70;46.45;101031.28;5113747;28;20411;-66
2023/10/01 11:36:11;;;;;;;7.63;3.50;;;;;;;23.77;46.56;101028.78;5114075;28;20089;-65
2023/10/01 11:38:46;;;;;;;7.45;3.05;;;;;;;23.84;46.59;101024.41;5114522;28;20143;-67
2023/10/01 11:41:38;;;;;;;7.80;3.17;;;;;;;23.90;46.38;101022.91;5114095;28;20051;-68
2023/10/01 11:44:24;;;;;;;7.47;3.63;;;;;;;23.95;46.67;101026.88;5113696;28;20086;-68
2023/10/01 11:46:59;;;;;;;7.82;3.17;;;;;;;24.01;46.61;101019.91;5113705;28;20047;-67
2023/10/01 11:49:34;;;;;;;7.72;3.00;;;;;;;24.07;46.48;101018.44;5113932;28;20138;-67
2023/10/01 11:52:28;;;;;;;8.00;2.92;;;;;;;24.11;46.35;101011.63;5112988;28;20525;-68
2023/10/01 11:55:19;;;;;;;6.35;2.92;;;;;;;24.16;46.35;101010.13;5113838;28;20166;-67
2023/10/01 11:57:55;;;;;;;7.80;3.35;;;;;;;24.21;46.24;101009.63;5113792;28;20125;-68
2023/10/01 12:00:52;;;;;;;5.80;2.88;;;;;;;24.26;45.96;101002.69;5114061;28;20087;-67
2023/10/01 12:03:22;;;;;;;6.70;3.15;;;;;;;24.32;46.18;101000.34;5113329;28;20146;-67
2023/10/01 12:05:56;;;;;;;5.97;2.80;;;;;;;24.36;46.14;100997.16;5113679;28;20055;-67
2023/10/01 12:08:35;;;;;;;6.25;2.95;;;;;;;24.41;46.08;101000.22;5113601;28;20047;-67
2023/10/01 12:11:26;;;;;;;5.60;2.90;;;;;;;24.46;45.96;100992.41;5113640;28;20412;-67
2023/10/01 12:14:08;;;;;;;7.88;2.90;;;;;;;24.51;46.00;100990.06;5113366;28;20047;-67
2023/10/01 12:16:39;;;;;;;7.05;3.10;;;;;;;24.57;46.07;100982.22;5113421;28;20058;-67
2023/10/01 12:19:24;;;;;;;7.45;3.50;;;;;;;24.61;46.02;100980.84;5113565;28;20040;-67
2023/10/01 12:22:06;;;;;;;6.68;3.00;;;;;;;24.65;46.17;100980.38;5113440;28;20063;-67
2023/10/01 12:24:39;;;;;;;8.23;3.13;;;;;;;24.71;45.78;100970.69;5112670;28;20048;-67
2023/10/01 12:27:11;;;;;;;7.75;3.33;;;;;;;24.74;46.03;100965.75;5113277;28;20613;-68
2023/10/01 12:29:48;;;;;;;6.63;3.13;;;;;;;24.78;45.96;100964.38;5113279;28;20051;-67